sensor_id;sensor_type;location;lat;lon;timestamp;pressure;altitude;pressure_sealevel;temperature;humidity
6938;BME280;40040;42.706;23.372;2023-05-07T00:00:09;146742.69;;;10.42;100.00
6938;BME280;40040;42.706;23.372;2023-05-07T00:02:36;146757.44;;;10.48;100.00
6938;BME280;40040;42.706;23.372;2023-05-07T00:05:06;146762.41;;;10.50;100.00
6938;BME280;40040;42.706;23.372;2023-05-07T00:07:33;146762.41;;;10.50;100.00
6938;BME280;40040;42.706;23.372;2023-05-07T00:09:59;146767.34;;;10.52;100.00
6938;BME280;40040;42.706;23.372;2023-05-07T00:12:26;146740.19;;;10.41;100.00
6938;BME280;40040;42.706;23.372;2023-05-07T00:14:56;146721.72;;;10.34;100.00
6938;BME280;40040;42.706;23.372;2023-05-07T00:17:23;146720.47;;;10.33;100.00
6938;BME280;40040;42.706;23.372;2023-05-07T00:19:50;146713.06;;;10.30;100.00
6938;BME280;40040;42.706;23.372;2023-05-07T00:22:18;146715.53;;;10.31;100.00
6938;BME280;40040;42.706;23.372;2023-05-07T00:24:45;146725.41;;;10.35;100.00
6938;BME280;40040;42.706;23.372;2023-05-07T00:27:12;146698.25;;;10.24;100.00
6938;BME280;40040;42.706;23.372;2023-05-07T00:29:38;146651.34;;;10.05;100.00
6938;BME280;40040;42.706;23.372;2023-05-07T00:32:05;146651.34;;;10.05;100.00
6938;BME280;40040;42.706;23.372;2023-05-07T00:34:32;146634.06;;;9.98;100.00
6938;BME280;40040;42.706;23.372;2023-05-07T00:36:59;146631.63;;;9.97;100.00
6938;BME280;40040;42.706;23.372;2023-05-07T00:39:27;146639.00;;;10.00;100.00
6938;BME280;40040;42.706;23.372;2023-05-07T00:41:54;146634.06;;;9.98;100.00
6938;BME280;40040;42.706;23.372;2023-05-07T00:44:20;146648.91;;;10.04;100.00
6938;BME280;40040;42.706;23.372;2023-05-07T00:46:48;146646.41;;;10.03;100.00
6938;BME280;40040;42.706;23.372;2023-05-07T00:49:15;146616.81;;;9.91;100.00
6938;BME280;40040;42.706;23.372;2023-05-07T00:51:42;146587.22;;;9.79;100.00
6938;BME280;40040;42.706;23.372;2023-05-07T00:54:09;146587.22;;;9.79;100.00
6938;BME280;40040;42.706;23.372;2023-05-07T00:56:37;146542.81;;;9.61;100.00
6938;BME280;40040;42.706;23.372;2023-05-07T00:59:05;146539.13;;;9.59;100.00
6938;BME280;40040;42.706;23.372;2023-05-07T01:01:32;146579.84;;;9.76;100.00
6938;BME280;40040;42.706;23.372;2023-05-07T01:03:59;146577.34;;;9.75;100.00
6938;BME280;40040;42.706;23.372;2023-05-07T01:06:28;146567.50;;;9.71;100.00
6938;BME280;40040;42.706;23.372;2023-05-07T01:08:56;146545.31;;;9.62;100.00
6938;BME280;40040;42.706;23.372;2023-05-07T01:11:23;146533.00;;;9.57;100.00
6938;BME280;40040;42.706;23.372;2023-05-07T01:13:52;146534.19;;;9.57;100.00
6938;BME280;40040;42.706;23.372;2023-05-07T01:16:19;146551.44;;;9.64;100.00
6938;BME280;40040;42.706;23.372;2023-05-07T01:18:47;146560.09;;;9.68;100.00
6938;BME280;40040;42.706;23.372;2023-05-07T01:21:15;146542.81;;;9.61;100.00
6938;BME280;40040;42.706;23.372;2023-05-07T01:23:45;146555.19;;;9.66;100.00
6938;BME280;40040;42.706;23.372;2023-05-07T01:26:13;146555.19;;;9.66;100.00
6938;BME280;40040;42.706;23.372;2023-05-07T01:28:40;146545.31;;;9.62;100.00
6938;BME280;40040;42.706;23.372;2023-05-07T01:31:08;146550.25;;;9.64;100.00
6938;BME280;40040;42.706;23.372;2023-05-07T01:33:36;146565.03;;;9.70;100.00
6938;BME280;40040;42.706;23.372;2023-05-07T01:36:05;146567.50;;;9.71;100.00
6938;BME280;40040;42.706;23.372;2023-05-07T01:38:34;146572.41;;;9.73;100.00
6938;BME280;40040;42.706;23.372;2023-05-07T01:41:03;146577.34;;;9.75;100.00
6938;BME280;40040;42.706;23.372;2023-05-07T01:43:30;146562.56;;;9.69;100.00
6938;BME280;40040;42.706;23.372;2023-05-07T01:45:57;146552.69;;;9.65;100.00
6938;BME280;40040;42.706;23.372;2023-05-07T01:48:25;146568.72;;;9.71;100.00
6938;BME280;40040;42.706;23.372;2023-05-07T01:50:52;146535.44;;;9.58;100.00
6938;BME280;40040;42.706;23.372;2023-05-07T01:53:19;146518.19;;;9.51;100.00
6938;BME280;40040;42.706;23.372;2023-05-07T01:55:46;146481.22;;;9.36;100.00
6938;BME280;40040;42.706;23.372;2023-05-07T01:58:14;146463.97;;;9.29;100.00
6938;BME280;40040;42.706;23.372;2023-05-07T02:00:41;146452.84;;;9.24;100.00
6938;BME280;40040;42.706;23.372;2023-05-07T02:03:08;146428.19;;;9.14;100.00
6938;BME280;40040;42.706;23.372;2023-05-07T02:05:34;146401.13;;;9.03;100.00
6938;BME280;40040;42.706;23.372;2023-05-07T02:08:01;146378.94;;;8.94;100.00
6938;BME280;40040;42.706;23.372;2023-05-07T02:10:28;146360.44;;;8.86;100.00
6938;BME280;40040;42.706;23.372;2023-05-07T02:12:55;146287.75;;;8.57;100.00
6938;BME280;40040;42.706;23.372;2023-05-07T02:15:23;146339.50;;;8.78;100.00
6938;BME280;40040;42.706;23.372;2023-05-07T02:18:00;146335.81;;;8.76;100.00
6938;BME280;40040;42.706;23.372;2023-05-07T02:20:27;146327.19;;;8.73;100.00
6938;BME280;40040;42.706;23.372;2023-05-07T02:22:54;146328.44;;;8.73;100.00
6938;BME280;40040;42.706;23.372;2023-05-07T02:25:21;146340.75;;;8.78;100.00
6938;BME280;40040;42.706;23.372;2023-05-07T02:27:48;146348.13;;;8.81;100.00
6938;BME280;40040;42.706;23.372;2023-05-07T02:30:15;146372.75;;;8.91;100.00
6938;BME280;40040;42.706;23.372;2023-05-07T02:32:43;146378.94;;;8.94;100.00
6938;BME280;40040;42.706;23.372;2023-05-07T02:35:10;146387.56;;;8.97;100.00
6938;BME280;40040;42.706;23.372;2023-05-07T02:37:38;146370.31;;;8.90;100.00
6938;BME280;40040;42.706;23.372;2023-05-07T02:40:06;146346.88;;;8.81;100.00
6938;BME280;40040;42.706;23.372;2023-05-07T02:42:33;146376.44;;;8.93;100.00
6938;BME280;40040;42.706;23.372;2023-05-07T02:45:00;146370.31;;;8.90;100.00
6938;BME280;40040;42.706;23.372;2023-05-07T02:47:27;146390.00;;;8.98;100.00
6938;BME280;40040;42.706;23.372;2023-05-07T02:49:57;146387.56;;;8.97;100.00
6938;BME280;40040;42.706;23.372;2023-05-07T02:52:24;146394.94;;;9.00;100.00
6938;BME280;40040;42.706;23.372;2023-05-07T02:54:50;146370.31;;;8.90;100.00
6938;BME280;40040;42.706;23.372;2023-05-07T02:57:21;146381.38;;;8.95;100.00
6938;BME280;40040;42.706;23.372;2023-05-07T02:59:49;146388.75;;;8.98;100.00
6938;BME280;40040;42.706;23.372;2023-05-07T03:02:17;146383.88;;;8.96;100.00
6938;BME280;40040;42.706;23.372;2023-05-07T03:04:44;146385.06;;;8.96;100.00
6938;BME280;40040;42.706;23.372;2023-05-07T03:07:12;146401.13;;;9.03;100.00
6938;BME280;40040;42.706;23.372;2023-05-07T03:09:39;146382.63;;;8.95;100.00
6938;BME280;40040;42.706;23.372;2023-05-07T03:12:06;146417.13;;;9.09;100.00
6938;BME280;40040;42.706;23.372;2023-05-07T03:14:33;146418.34;;;9.10;100.00
6938;BME280;40040;42.706;23.372;2023-05-07T03:17:00;146424.50;;;9.13;100.00
6938;BME280;40040;42.706;23.372;2023-05-07T03:19:27;146434.38;;;9.17;100.00
6938;BME280;40040;42.706;23.372;2023-05-07T03:21:55;146435.59;;;9.17;100.00
6938;BME280;40040;42.706;23.372;2023-05-07T03:24:24;146423.25;;;9.12;100.00
6938;BME280;40040;42.706;23.372;2023-05-07T03:26:51;146412.19;;;9.07;100.00
6938;BME280;40040;42.706;23.372;2023-05-07T03:29:17;146409.75;;;9.06;100.00
6938;BME280;40040;42.706;23.372;2023-05-07T03:31:45;146412.19;;;9.07;100.00
6938;BME280;40040;42.706;23.372;2023-05-07T03:34:11;146431.91;;;9.16;100.00
6938;BME280;40040;42.706;23.372;2023-05-07T03:36:38;146441.75;;;9.20;100.00
6938;BME280;40040;42.706;23.372;2023-05-07T03:39:05;146449.16;;;9.23;100.00
6938;BME280;40040;42.706;23.372;2023-05-07T03:41:33;146467.66;;;9.30;100.00
6938;BME280;40040;42.706;23.372;2023-05-07T03:44:00;146472.59;;;9.32;100.00
6938;BME280;40040;42.706;23.372;2023-05-07T03:46:27;146478.72;;;9.35;100.00
6938;BME280;40040;42.706;23.372;2023-05-07T03:48:54;146451.63;;;9.24;100.00
6938;BME280;40040;42.706;23.372;2023-05-07T03:51:21;146471.34;;;9.32;100.00
6938;BME280;40040;42.706;23.372;2023-05-07T03:53:47;146488.59;;;9.39;100.00
6938;BME280;40040;42.706;23.372;2023-05-07T03:56:14;146503.41;;;9.45;100.00
6938;BME280;40040;42.706;23.372;2023-05-07T03:58:42;146533.00;;;9.57;100.00
6938;BME280;40040;42.706;23.372;2023-05-07T04:01:09;146545.31;;;9.62;100.00
6938;BME280;40040;42.706;23.372;2023-05-07T04:03:36;146550.25;;;9.64;100.00
6938;BME280;40040;42.706;23.372;2023-05-07T04:06:03;146565.03;;;9.70;100.00
6938;BME280;40040;42.706;23.372;2023-05-07T04:08:30;146542.81;;;9.61;100.00
6938;BME280;40040;42.706;23.372;2023-05-07T04:10:58;146542.81;;;9.61;100.00
6938;BME280;40040;42.706;23.372;2023-05-07T04:13:25;146546.56;;;9.62;100.00
6938;BME280;40040;42.706;23.372;2023-05-07T04:15:55;146565.03;;;9.70;100.00
6938;BME280;40040;42.706;23.372;2023-05-07T04:18:22;146553.94;;;9.65;100.00
6938;BME280;40040;42.706;23.372;2023-05-07T04:20:49;146562.56;;;9.69;100.00
6938;BME280;40040;42.706;23.372;2023-05-07T04:23:16;146572.41;;;9.73;100.00
6938;BME280;40040;42.706;23.372;2023-05-07T04:25:43;146577.34;;;9.75;100.00
6938;BME280;40040;42.706;23.372;2023-05-07T04:28:10;146574.91;;;9.74;100.00
6938;BME280;40040;42.706;23.372;2023-05-07T04:30:37;146572.41;;;9.73;100.00
6938;BME280;40040;42.706;23.372;2023-05-07T04:33:06;146597.09;;;9.83;100.00
6938;BME280;40040;42.706;23.372;2023-05-07T04:35:34;146611.88;;;9.89;100.00
6938;BME280;40040;42.706;23.372;2023-05-07T04:38:01;146631.63;;;9.97;100.00
6938;BME280;40040;42.706;23.372;2023-05-07T04:40:28;146651.34;;;10.05;100.00
6938;BME280;40040;42.706;23.372;2023-05-07T04:42:55;146668.66;;;10.12;100.00
6938;BME280;40040;42.706;23.372;2023-05-07T04:45:22;146688.38;;;10.20;100.00
6938;BME280;40040;42.706;23.372;2023-05-07T04:47:49;146661.28;;;10.09;100.00
6938;BME280;40040;42.706;23.372;2023-05-07T04:50:17;146713.06;;;10.30;100.00
6938;BME280;40040;42.706;23.372;2023-05-07T04:52:45;146732.78;;;10.38;100.00
6938;BME280;40040;42.706;23.372;2023-05-07T04:55:13;146742.69;;;10.42;100.00
6938;BME280;40040;42.706;23.372;2023-05-07T04:57:41;146745.13;;;10.43;100.00
6938;BME280;40040;42.706;23.372;2023-05-07T05:00:08;146780.91;;;10.58;100.00
6938;BME280;40040;42.706;23.372;2023-05-07T05:02:36;146808.03;;;10.69;100.00
6938;BME280;40040;42.706;23.372;2023-05-07T05:05:04;146809.28;;;10.69;100.00
6938;BME280;40040;42.706;23.372;2023-05-07T05:07:33;146864.81;;;10.92;100.00
6938;BME280;40040;42.706;23.372;2023-05-07T05:09:59;146888.28;;;11.01;100.00
6938;BME280;40040;42.706;23.372;2023-05-07T05:12:26;146921.59;;;11.15;100.00
6938;BME280;40040;42.706;23.372;2023-05-07T05:14:53;146962.28;;;11.31;100.00
6938;BME280;40040;42.706;23.372;2023-05-07T05:17:20;147010.47;;;11.51;100.00
6938;BME280;40040;42.706;23.372;2023-05-07T05:19:47;147061.13;;;11.72;100.00
6938;BME280;40040;42.706;23.372;2023-05-07T05:22:14;147115.50;;;11.94;100.00
6938;BME280;40040;42.706;23.372;2023-05-07T05:24:42;147169.81;;;12.16;100.00
6938;BME280;40040;42.706;23.372;2023-05-07T05:27:09;147184.66;;;12.22;100.00
6938;BME280;40040;42.706;23.372;2023-05-07T05:29:36;147281.00;;;12.61;100.00
6938;BME280;40040;42.706;23.372;2023-05-07T05:32:03;147330.47;;;12.81;100.00
6938;BME280;40040;42.706;23.372;2023-05-07T05:34:29;147393.53;;;13.07;100.00
6938;BME280;40040;42.706;23.372;2023-05-07T05:36:59;147440.50;;;13.26;100.00
6938;BME280;40040;42.706;23.372;2023-05-07T05:39:26;147476.38;;;13.40;100.00
6938;BME280;40040;42.706;23.372;2023-05-07T05:41:54;147508.50;;;13.53;100.00
6938;BME280;40040;42.706;23.372;2023-05-07T05:44:20;147572.81;;;13.80;100.00
6938;BME280;40040;42.706;23.372;2023-05-07T05:46:47;147624.78;;;14.01;100.00
6938;BME280;40040;42.706;23.372;2023-05-07T05:49:15;147692.84;;;14.28;100.00
6938;BME280;40040;42.706;23.372;2023-05-07T05:51:41;147753.50;;;14.53;100.00
6938;BME280;40040;42.706;23.372;2023-05-07T05:54:08;147800.53;;;14.72;100.00
6938;BME280;40040;42.706;23.372;2023-05-07T05:56:36;147852.50;;;14.93;100.00
6938;BME280;40040;42.706;23.372;2023-05-07T05:59:05;147899.53;;;15.12;100.00
6938;BME280;40040;42.706;23.372;2023-05-07T06:01:32;147929.25;;;15.24;100.00
6938;BME280;40040;42.706;23.372;2023-05-07T06:03:59;148003.63;;;15.54;100.00
6938;BME280;40040;42.706;23.372;2023-05-07T06:06:25;148080.41;;;15.86;100.00
6938;BME280;40040;42.706;23.372;2023-05-07T06:08:52;148148.53;;;16.13;100.00
6938;BME280;40040;42.706;23.372;2023-05-07T06:11:19;148149.78;;;16.14;100.00
6938;BME280;40040;42.706;23.372;2023-05-07T06:13:46;148231.63;;;16.47;100.00
6938;BME280;40040;42.706;23.372;2023-05-07T06:16:15;148231.63;;;16.47;100.00
6938;BME280;40040;42.706;23.372;2023-05-07T06:18:41;148260.09;;;16.58;100.00
6938;BME280;40040;42.706;23.372;2023-05-07T06:21:09;148324.56;;;16.84;100.00
6938;BME280;40040;42.706;23.372;2023-05-07T06:23:36;148366.69;;;17.02;100.00
6938;BME280;40040;42.706;23.372;2023-05-07T06:26:03;148429.94;;;17.27;100.00
6938;BME280;40040;42.706;23.372;2023-05-07T06:28:30;148485.81;;;17.50;100.00
6938;BME280;40040;42.706;23.372;2023-05-07T06:31:11;148482.09;;;17.48;100.00
6938;BME280;40040;42.706;23.372;2023-05-07T06:33:39;148521.75;;;17.64;100.00
6938;BME280;40040;42.706;23.372;2023-05-07T06:36:06;148608.59;;;17.99;100.00
6938;BME280;40040;42.706;23.372;2023-05-07T06:38:33;148663.19;;;18.22;100.00
6938;BME280;40040;42.706;23.372;2023-05-07T06:41:00;148647.03;;;18.15;100.00
6938;BME280;40040;42.706;23.372;2023-05-07T06:43:27;148700.41;;;18.37;100.00
6938;BME280;40040;42.706;23.372;2023-05-07T06:45:54;148802.22;;;18.78;100.00
6938;BME280;40040;42.706;23.372;2023-05-07T06:48:20;148845.66;;;18.95;100.00
6938;BME280;40040;42.706;23.372;2023-05-07T06:50:49;148894.09;;;19.15;100.00
6938;BME280;40040;42.706;23.372;2023-05-07T06:53:15;148941.31;;;19.34;98.00
6938;BME280;40040;42.706;23.372;2023-05-07T06:55:42;148921.44;;;19.26;100.00
6938;BME280;40040;42.706;23.372;2023-05-07T06:58:09;148974.84;;;19.48;97.16
6938;BME280;40040;42.706;23.372;2023-05-07T07:00:36;148995.97;;;19.56;94.92
6938;BME280;40040;42.706;23.372;2023-05-07T07:03:02;149013.34;;;19.63;96.81
6938;BME280;40040;42.706;23.372;2023-05-07T07:05:29;149120.22;;;20.06;95.43
6938;BME280;40040;42.706;23.372;2023-05-07T07:07:57;149189.81;;;20.35;90.48
6938;BME280;40040;42.706;23.372;2023-05-07T07:10:24;149224.59;;;20.49;89.48
6938;BME280;40040;42.706;23.372;2023-05-07T07:12:51;149283.03;;;20.72;88.41
6938;BME280;40040;42.706;23.372;2023-05-07T07:15:19;149363.88;;;21.05;89.22
6938;BME280;40040;42.706;23.372;2023-05-07T07:17:47;149470.81;;;21.48;88.09
6938;BME280;40040;42.706;23.372;2023-05-07T07:20:14;149524.31;;;21.70;86.26
6938;BME280;40040;42.706;23.372;2023-05-07T07:22:41;149540.47;;;21.76;82.67
6938;BME280;40040;42.706;23.372;2023-05-07T07:25:10;149515.59;;;21.66;81.22
6938;BME280;40040;42.706;23.372;2023-05-07T07:27:37;149488.22;;;21.55;80.12
6938;BME280;40040;42.706;23.372;2023-05-07T07:30:06;149500.66;;;21.60;80.24
6938;BME280;40040;42.706;23.372;2023-05-07T07:32:34;149450.94;;;21.40;83.25
6938;BME280;40040;42.706;23.372;2023-05-07T07:35:00;149465.88;;;21.46;85.67
6938;BME280;40040;42.706;23.372;2023-05-07T07:37:27;149564.16;;;21.86;83.93
6938;BME280;40040;42.706;23.372;2023-05-07T07:39:55;149555.47;;;21.82;82.08
6938;BME280;40040;42.706;23.372;2023-05-07T07:42:23;149547.97;;;21.79;82.74
6938;BME280;40040;42.706;23.372;2023-05-07T07:44:50;149590.28;;;21.96;81.43
6938;BME280;40040;42.706;23.372;2023-05-07T07:47:17;149640.03;;;22.16;81.68
6938;BME280;40040;42.706;23.372;2023-05-07T07:49:43;149668.69;;;22.28;80.20
6938;BME280;40040;42.706;23.372;2023-05-07T07:52:10;149688.56;;;22.36;81.35
6938;BME280;40040;42.706;23.372;2023-05-07T07:54:37;149667.44;;;22.27;79.84
6938;BME280;40040;42.706;23.372;2023-05-07T07:57:04;149659.97;;;22.24;81.33
6938;BME280;40040;42.706;23.372;2023-05-07T07:59:32;149732.13;;;22.54;80.69
6938;BME280;40040;42.706;23.372;2023-05-07T08:01:58;149749.59;;;22.61;78.70
6938;BME280;40040;42.706;23.372;2023-05-07T08:04:25;149712.19;;;22.46;77.55
6938;BME280;40040;42.706;23.372;2023-05-07T08:09:19;149941.34;;;23.38;74.35
6938;BME280;40040;42.706;23.372;2023-05-07T08:11:46;149918.97;;;23.29;73.14
6938;BME280;40040;42.706;23.372;2023-05-07T08:14:13;149951.31;;;23.42;74.42
6938;BME280;40040;42.706;23.372;2023-05-07T08:16:42;150036.03;;;23.76;72.27
6938;BME280;40040;42.706;23.372;2023-05-07T08:19:09;150150.66;;;24.22;72.80
6938;BME280;40040;42.706;23.372;2023-05-07T08:21:39;150201.72;;;24.43;69.38
6938;BME280;40040;42.706;23.372;2023-05-07T08:24:06;150153.13;;;24.23;70.41
6938;BME280;40040;42.706;23.372;2023-05-07T08:26:33;150065.91;;;23.88;71.69
6938;BME280;40040;42.706;23.372;2023-05-07T08:29:01;150110.78;;;24.06;70.40
6938;BME280;40040;42.706;23.372;2023-05-07T08:31:28;150210.44;;;24.46;67.56
6938;BME280;40040;42.706;23.372;2023-05-07T08:33:57;150327.66;;;24.94;63.85
6938;BME280;40040;42.706;23.372;2023-05-07T08:36:24;150292.75;;;24.80;62.94
6938;BME280;40040;42.706;23.372;2023-05-07T08:38:51;150272.81;;;24.72;64.36
6938;BME280;40040;42.706;23.372;2023-05-07T08:41:17;150155.66;;;24.24;65.24
6938;BME280;40040;42.706;23.372;2023-05-07T08:43:48;150285.28;;;24.77;64.91
6938;BME280;40040;42.706;23.372;2023-05-07T08:46:17;150451.13;;;25.43;61.62
6938;BME280;40040;42.706;23.372;2023-05-07T08:48:45;150481.06;;;25.55;57.99
6938;BME280;40040;42.706;23.372;2023-05-07T08:51:17;150467.34;;;25.50;59.03
6938;BME280;40040;42.706;23.372;2023-05-07T08:53:45;150399.94;;;25.23;59.37
6938;BME280;40040;42.706;23.372;2023-05-07T08:56:14;150267.84;;;24.70;61.05
6938;BME280;40040;42.706;23.372;2023-05-07T08:58:42;150181.81;;;24.35;60.31
6938;BME280;40040;42.706;23.372;2023-05-07T09:01:10;150307.72;;;24.86;59.90
6938;BME280;40040;42.706;23.372;2023-05-07T09:03:39;150390.00;;;25.19;57.91
6938;BME280;40040;42.706;23.372;2023-05-07T09:06:06;150552.13;;;25.84;57.94
6938;BME280;40040;42.706;23.372;2023-05-07T09:08:35;150701.88;;;26.44;55.27
6938;BME280;40040;42.706;23.372;2023-05-07T09:11:02;150829.19;;;26.96;51.94
6938;BME280;40040;42.706;23.372;2023-05-07T09:13:29;150849.16;;;27.04;49.05
6938;BME280;40040;42.706;23.372;2023-05-07T09:15:56;150887.88;;;27.19;47.57
6938;BME280;40040;42.706;23.372;2023-05-07T09:18:23;150822.97;;;26.93;49.30
6938;BME280;40040;42.706;23.372;2023-05-07T09:20:50;150911.56;;;27.29;47.77
6938;BME280;40040;42.706;23.372;2023-05-07T09:23:17;150986.53;;;27.59;46.29
6938;BME280;40040;42.706;23.372;2023-05-07T09:25:45;151020.22;;;27.72;45.25
6938;BME280;40040;42.706;23.372;2023-05-07T09:28:12;151102.69;;;28.06;44.14
6938;BME280;40040;42.706;23.372;2023-05-07T09:30:39;151223.88;;;28.54;43.89
6938;BME280;40040;42.706;23.372;2023-05-07T09:33:06;151361.41;;;29.10;41.68
6938;BME280;40040;42.706;23.372;2023-05-07T09:35:32;151453.84;;;29.47;41.30
6938;BME280;40040;42.706;23.372;2023-05-07T09:38:00;151496.41;;;29.64;39.54
6938;BME280;40040;42.706;23.372;2023-05-07T09:40:29;151526.44;;;29.76;39.01
6938;BME280;40040;42.706;23.372;2023-05-07T09:43:08;151536.41;;;29.80;37.41
6938;BME280;40040;42.706;23.372;2023-05-07T09:45:36;151551.44;;;29.86;38.72
6938;BME280;40040;42.706;23.372;2023-05-07T09:48:05;151583.91;;;29.99;36.75
6938;BME280;40040;42.706;23.372;2023-05-07T09:50:36;151597.69;;;30.05;34.89
6938;BME280;40040;42.706;23.372;2023-05-07T09:53:05;151676.50;;;30.36;35.13
6938;BME280;40040;42.706;23.372;2023-05-07T09:55:33;151726.50;;;30.56;35.15
6938;BME280;40040;42.706;23.372;2023-05-07T09:58:02;151786.63;;;30.80;35.22
6938;BME280;40040;42.706;23.372;2023-05-07T10:00:31;151664.00;;;30.31;35.37
6938;BME280;40040;42.706;23.372;2023-05-07T10:02:58;151576.44;;;29.96;36.96
6938;BME280;40040;42.706;23.372;2023-05-07T10:05:27;151258.88;;;28.68;35.57
6938;BME280;40040;42.706;23.372;2023-05-07T10:07:54;151156.41;;;28.27;37.91
6938;BME280;40040;42.706;23.372;2023-05-07T10:10:23;151376.38;;;29.16;38.10
6938;BME280;40040;42.706;23.372;2023-05-07T10:12:50;151506.41;;;29.68;34.65
6938;BME280;40040;42.706;23.372;2023-05-07T10:15:19;151547.69;;;29.84;33.89
6938;BME280;40040;42.706;23.372;2023-05-07T10:17:46;151690.28;;;30.42;33.65
6938;BME280;40040;42.706;23.372;2023-05-07T10:20:14;151664.00;;;30.31;32.47
6938;BME280;40040;42.706;23.372;2023-05-07T10:22:43;151561.44;;;29.90;32.69
6938;BME280;40040;42.706;23.372;2023-05-07T10:25:16;151516.44;;;29.72;32.62
6938;BME280;40040;42.706;23.372;2023-05-07T10:27:45;151680.25;;;30.38;31.94
6938;BME280;40040;42.706;23.372;2023-05-07T10:30:21;151761.53;;;30.70;31.02
6938;BME280;40040;42.706;23.372;2023-05-07T10:32:54;151784.09;;;30.79;31.36
6938;BME280;40040;42.706;23.372;2023-05-07T10:35:25;151611.44;;;30.10;33.43
6938;BME280;40040;42.706;23.372;2023-05-07T10:37:54;151408.88;;;29.29;34.26
6938;BME280;40040;42.706;23.372;2023-05-07T10:40:21;151486.38;;;29.60;31.28
6938;BME280;40040;42.706;23.372;2023-05-07T10:42:55;151518.91;;;29.73;32.08
6938;BME280;40040;42.706;23.372;2023-05-07T10:45:24;151630.22;;;30.18;31.67
6938;BME280;40040;42.706;23.372;2023-05-07T10:48:08;151694.03;;;30.43;30.92
6938;BME280;40040;42.706;23.372;2023-05-07T10:50:35;151770.28;;;30.74;30.85
6938;BME280;40040;42.706;23.372;2023-05-07T10:53:24;151804.16;;;30.87;31.24
6938;BME280;40040;42.706;23.372;2023-05-07T10:56:26;151811.66;;;30.90;31.40
6938;BME280;40040;42.706;23.372;2023-05-07T10:59:01;151780.31;;;30.78;30.05
6938;BME280;40040;42.706;23.372;2023-05-07T11:01:52;151443.91;;;29.43;31.91
6938;BME280;40040;42.706;23.372;2023-05-07T11:04:19;151468.88;;;29.53;32.96
6938;BME280;40040;42.706;23.372;2023-05-07T11:10:01;151527.66;;;29.76;31.44
6938;BME280;40040;42.706;23.372;2023-05-07T11:12:49;151615.19;;;30.12;31.57
6938;BME280;40040;42.706;23.372;2023-05-07T11:15:41;151701.50;;;30.46;32.22
6938;BME280;40040;42.706;23.372;2023-05-07T11:18:11;151493.88;;;29.63;31.30
6938;BME280;40040;42.706;23.372;2023-05-07T11:20:56;151325.09;;;28.95;32.77
6938;BME280;40040;42.706;23.372;2023-05-07T11:23:58;151178.91;;;28.36;32.93
6938;BME280;40040;42.706;23.372;2023-05-07T11:26:26;151156.41;;;28.27;33.69
6938;BME280;40040;42.706;23.372;2023-05-07T11:28:53;151192.66;;;28.42;34.62
6938;BME280;40040;42.706;23.372;2023-05-07T11:31:23;151141.41;;;28.21;32.89
6938;BME280;40040;42.706;23.372;2023-05-07T11:33:53;151086.47;;;27.99;34.94
6938;BME280;40040;42.706;23.372;2023-05-07T11:36:21;150929.09;;;27.36;32.37
6938;BME280;40040;42.706;23.372;2023-05-07T11:38:48;150861.66;;;27.09;33.28
6938;BME280;40040;42.706;23.372;2023-05-07T11:41:16;150944.09;;;27.42;30.37
6938;BME280;40040;42.706;23.372;2023-05-07T11:43:55;150971.56;;;27.53;32.28
6938;BME280;40040;42.706;23.372;2023-05-07T11:46:22;150986.53;;;27.59;32.61
6938;BME280;40040;42.706;23.372;2023-05-07T11:48:49;151051.44;;;27.85;31.14
6938;BME280;40040;42.706;23.372;2023-05-07T11:51:21;151071.44;;;27.93;31.17
6938;BME280;40040;42.706;23.372;2023-05-07T11:53:48;151065.19;;;27.91;32.77
6938;BME280;40040;42.706;23.372;2023-05-07T11:56:16;151053.91;;;27.86;31.17
6938;BME280;40040;42.706;23.372;2023-05-07T11:58:44;151016.47;;;27.71;31.16
6938;BME280;40040;42.706;23.372;2023-05-07T12:01:12;151023.97;;;27.74;32.55
6938;BME280;40040;42.706;23.372;2023-05-07T12:03:40;151101.47;;;28.05;30.57
6938;BME280;40040;42.706;23.372;2023-05-07T12:06:09;151072.72;;;27.94;31.48
6938;BME280;40040;42.706;23.372;2023-05-07T12:08:40;151068.97;;;27.92;30.63
6938;BME280;40040;42.706;23.372;2023-05-07T12:11:08;151115.16;;;28.11;30.21
6938;BME280;40040;42.706;23.372;2023-05-07T12:13:36;151127.66;;;28.16;30.98
6938;BME280;40040;42.706;23.372;2023-05-07T12:16:04;151021.47;;;27.73;31.43
6938;BME280;40040;42.706;23.372;2023-05-07T12:18:33;150972.78;;;27.53;31.11
6938;BME280;40040;42.706;23.372;2023-05-07T12:21:01;150966.56;;;27.51;31.11
6938;BME280;40040;42.706;23.372;2023-05-07T12:23:28;150934.09;;;27.38;32.52
6938;BME280;40040;42.706;23.372;2023-05-07T12:25:56;150822.97;;;26.93;31.54
6938;BME280;40040;42.706;23.372;2023-05-07T12:28:23;150718.09;;;26.51;32.11
6938;BME280;40040;42.706;23.372;2023-05-07T12:30:50;150669.41;;;26.31;32.84
6938;BME280;40040;42.706;23.372;2023-05-07T12:33:18;150733.09;;;26.57;33.77
6938;BME280;40040;42.706;23.372;2023-05-07T12:35:47;150734.28;;;26.57;32.38
6938;BME280;40040;42.706;23.372;2023-05-07T12:38:15;150693.16;;;26.41;32.19
6938;BME280;40040;42.706;23.372;2023-05-07T12:40:44;150728.09;;;26.55;31.80
6938;BME280;40040;42.706;23.372;2023-05-07T12:43:17;150734.28;;;26.57;31.88
6938;BME280;40040;42.706;23.372;2023-05-07T12:45:44;150749.28;;;26.63;31.92
6938;BME280;40040;42.706;23.372;2023-05-07T12:48:12;150729.28;;;26.55;31.31
6938;BME280;40040;42.706;23.372;2023-05-07T12:50:38;150726.81;;;26.54;33.15
6938;BME280;40040;42.706;23.372;2023-05-07T12:53:06;150761.81;;;26.69;32.15
6938;BME280;40040;42.706;23.372;2023-05-07T12:55:40;150771.81;;;26.73;30.55
6938;BME280;40040;42.706;23.372;2023-05-07T12:58:08;150758.06;;;26.67;31.50